Route Details

Aircraft Information
Group: Trans-Pacific Ops
Types: B744, MD11
Route Data
Distance: 2912nm
Duration: 7h 34m
Origin METAR: KIAD 010552Z 02005KT 10SM OVC017 02/M01 A3019 RMK AO2 SLP226 60000 T00171006 10028 20017 55009
Dest. METAR: PANC 010605Z 00000KT 1SM R07R/1800V2200FT BR VV002 M03/M03 A2975 RMK AO2 T10281033 CHINO N VISNO N $
Freight Data
(for Feb 1, 2023)
Load Factor:
55%
Manifested Cargo: 106,587lbs
Financial History
Total Freight: 380,152lbs
Average Load: 0lbs/flt
Fuel Used: 444,136lbs
Avg. Fuel Used: 0lbs/flt
Fuel Expense: $310,704
Avg. Fuel Expense: $0
Avg. Fuel Cost: $0/lbs
Total Gross Income: $929,090
Pilot Pay: $387
Total Expenses: $155,982
Total Revenue: $457,142
Average Revenue: $0

Capitol Logistics 825




KIAD
Washington Dulles International Airport
Dulles, Virginia
PANC
Ted Stevens Anchorage International Airport
Anchorage, Alaska